Time;durP1;ratioP1;P1;durP2;ratioP2;P2;SDS_P1;SDS_P2;PMS_P1;PMS_P2;Temp;Humidity;BMP_temperature;BMP_pressure;BME280_temperature;BME280_humidity;BME280_pressure;Samples;Min_cycle;Max_cycle;Signal;HPM_P1;HPM_P2
2022/02/03 00:01:50;;;;;;;4.95;2.28;;;;;;;;;;5031058;28;24483;-53
2022/02/03 00:04:18;;;;;;;8.38;2.40;;;;;;;;;;5027861;28;24438;-54
2022/02/03 00:06:49;;;;;;;6.88;2.72;;;;;;;;;;5043388;28;24499;-53
2022/02/03 00:25:22;;;;;;;8.20;2.90;;;;;;;;;;5038485;28;24557;-54
2022/02/03 00:30:18;;;;;;;7.78;2.67;;;;;;;;;;5033551;28;24576;-54
2022/02/03 00:32:54;;;;;;;6.13;2.40;;;;;;;;;;5028518;28;24412;-53
2022/02/03 00:35:31;;;;;;;10.57;2.90;;;;;;;;;;5034094;28;24423;-53
2022/02/03 00:38:14;;;;;;;6.22;2.20;;;;;;;;;;5040012;28;24860;-53
2022/02/03 00:49:00;;;;;;;8.82;2.80;;;;;;;;;;5030151;28;24783;-54
2022/02/03 00:51:26;;;;;;;7.13;2.90;;;;;;;;;;5030599;28;24419;-55
2022/02/03 00:53:52;;;;;;;6.85;2.70;;;;;;;;;;5029222;28;24420;-55
2022/02/03 00:56:23;;;;;;;10.23;2.90;;;;;;;;;;5026992;28;24419;-55
2022/02/03 00:58:51;;;;;;;7.03;2.58;;;;;;;;;;5039778;28;25003;-55
2022/02/03 01:01:17;;;;;;;6.30;2.53;;;;;;;;;;5027070;28;24485;-55
2022/02/03 01:03:43;;;;;;;5.00;2.40;;;;;;;;;;5035891;28;24412;-54
2022/02/03 01:06:12;;;;;;;9.80;2.80;;;;;;;;;;5027899;28;24555;-55
2022/02/03 01:08:40;;;;;;;8.43;3.00;;;;;;;;;;5030571;28;25001;-54
2022/02/03 01:11:12;;;;;;;5.57;2.42;;;;;;;;;;5034717;28;24957;-54
2022/02/03 01:13:43;;;;;;;6.25;2.40;;;;;;;;;;5026875;28;25002;-54
2022/02/03 01:36:48;;;;;;;7.18;2.65;;;;;;;;;;5037202;28;24426;-54
2022/02/03 01:45:52;;;;;;;8.13;2.80;;;;;;;;;;5034934;28;24404;-54
2022/02/03 01:53:48;;;;;;;8.52;2.70;;;;;;;;;;5036023;28;24572;-53
2022/02/03 01:56:15;;;;;;;9.02;2.67;;;;;;;;;;5040139;28;24449;-54
2022/02/03 01:58:44;;;;;;;8.77;2.40;;;;;;;;;;5029822;28;24517;-55
2022/02/03 02:01:12;;;;;;;8.40;2.60;;;;;;;;;;5040986;28;24436;-55
2022/02/03 02:04:00;;;;;;;6.55;2.45;;;;;;;;;;5036353;28;24465;-54
2022/02/03 02:06:32;;;;;;;8.57;2.97;;;;;;;;;;5027973;28;24976;-54
2022/02/03 02:09:04;;;;;;;6.70;2.47;;;;;;;;;;5032587;28;24498;-55
2022/02/03 02:12:04;;;;;;;6.65;2.60;;;;;;;;;;5032408;28;24533;-55
2022/02/03 02:36:51;;;;;;;5.43;2.33;;;;;;;;;;5029193;28;24507;-54
2022/02/03 02:39:31;;;;;;;5.30;2.45;;;;;;;;;;5033200;28;24462;-53
2022/02/03 02:45:05;;;;;;;7.00;2.63;;;;;;;;;;5029395;28;24457;-54
2022/02/03 02:47:47;;;;;;;6.47;2.40;;;;;;;;;;5034079;28;24404;-54
2022/02/03 02:50:12;;;;;;;6.53;2.50;;;;;;;;;;5035867;28;24438;-54
2022/02/03 02:52:45;;;;;;;4.38;2.40;;;;;;;;;;5043289;28;24433;-55
2022/02/03 03:00:43;;;;;;;6.00;2.50;;;;;;;;;;5031776;28;24857;-55
2022/02/03 03:03:42;;;;;;;5.82;2.30;;;;;;;;;;5031427;28;25000;-54
2022/02/03 03:31:33;;;;;;;7.82;2.85;;;;;;;;;;5036698;28;24442;-55
2022/02/03 03:34:15;;;;;;;6.97;2.70;;;;;;;;;;5028167;28;24459;-55
2022/02/03 03:36:42;;;;;;;4.93;2.38;;;;;;;;;;5028684;28;24455;-55
2022/02/03 03:39:10;;;;;;;3.25;2.28;;;;;;;;;;5032161;28;24455;-55
2022/02/03 03:41:38;;;;;;;5.88;2.40;;;;;;;;;;5028369;28;25036;-55
2022/02/03 03:44:07;;;;;;;7.70;2.63;;;;;;;;;;5026792;28;24439;-55
2022/02/03 03:46:33;;;;;;;6.28;2.40;;;;;;;;;;5029361;28;24977;-55
2022/02/03 03:49:02;;;;;;;7.07;2.40;;;;;;;;;;5037790;28;24474;-55
2022/02/03 03:51:31;;;;;;;6.80;3.13;;;;;;;;;;5028109;28;24977;-55
2022/02/03 03:54:04;;;;;;;7.70;3.30;;;;;;;;;;5033928;28;24459;-55
2022/02/03 03:56:41;;;;;;;7.55;3.13;;;;;;;;;;5031609;28;24416;-55
2022/02/03 03:59:37;;;;;;;7.13;2.80;;;;;;;;;;5029759;28;24439;-55
2022/02/03 04:34:46;;;;;;;8.15;3.10;;;;;;;;;;5003982;28;24462;-54
2022/02/03 04:42:49;;;;;;;7.47;3.10;;;;;;;;;;5034134;28;25043;-54
2022/02/03 04:54:38;;;;;;;5.65;2.90;;;;;;;;;;5035540;28;24489;-54
2022/02/03 04:57:39;;;;;;;5.88;2.80;;;;;;;;;;5040095;28;24437;-54
2022/02/03 05:03:30;;;;;;;8.43;2.97;;;;;;;;;;5028817;28;24605;-54
2022/02/03 05:05:42;;;;;;;6.93;3.10;;;;;;;;;;5028331;28;24418;-54
2022/02/03 05:08:32;;;;;;;9.23;3.20;;;;;;;;;;5038573;28;25038;-55
2022/02/03 05:11:37;;;;;;;6.90;3.40;;;;;;;;;;5019810;28;24503;-54
2022/02/03 06:01:24;;;;;;;4.88;3.30;;;;;;;;;;5027288;28;24427;-55
2022/02/03 06:07:06;;;;;;;5.30;2.88;;;;;;;;;;5030534;28;24419;-55
2022/02/03 06:09:45;;;;;;;7.90;3.47;;;;;;;;;;5026420;28;24948;-55
2022/02/03 06:12:37;;;;;;;8.25;3.85;;;;;;;;;;5029116;28;24423;-54
2022/02/03 06:15:08;;;;;;;7.80;3.50;;;;;;;;;;5041929;28;24506;-55
2022/02/03 06:20:39;;;;;;;6.50;3.70;;;;;;;;;;5031207;28;24408;-55
2022/02/03 06:20:55;;;;;;;7.13;3.40;;;;;;;;;;5040393;28;24419;-55
2022/02/03 06:23:26;;;;;;;8.48;3.67;;;;;;;;;;5033488;28;24778;-55
2022/02/03 06:28:35;;;;;;;6.95;3.30;;;;;;;;;;5029398;28;24411;-53
2022/02/03 06:31:00;;;;;;;6.20;3.33;;;;;;;;;;5029429;28;24407;-55
2022/02/03 06:33:25;;;;;;;5.70;3.00;;;;;;;;;;5029292;28;25035;-55
2022/02/03 06:35:51;;;;;;;7.50;4.28;;;;;;;;;;5029625;28;24403;-56
2022/02/03 06:38:16;;;;;;;5.88;3.40;;;;;;;;;;5030481;28;25055;-55
2022/02/03 06:40:41;;;;;;;9.63;3.40;;;;;;;;;;5029589;28;24427;-55
2022/02/03 06:43:06;;;;;;;6.63;3.88;;;;;;;;;;5038234;28;25051;-55
2022/02/03 06:45:39;;;;;;;7.03;3.80;;;;;;;;;;5049186;28;24465;-54
2022/02/03 06:48:10;;;;;;;7.80;3.90;;;;;;;;;;5039891;28;24408;-55
2022/02/03 06:50:44;;;;;;;7.33;4.00;;;;;;;;;;5029062;28;24902;-54
2022/02/03 06:53:16;;;;;;;5.72;3.70;;;;;;;;;;5028677;28;24946;-55
2022/02/03 06:55:51;;;;;;;7.50;4.00;;;;;;;;;;5031705;28;24407;-55
2022/02/03 06:58:28;;;;;;;9.27;3.50;;;;;;;;;;5039569;28;24850;-54
2022/02/03 07:01:01;;;;;;;6.65;3.60;;;;;;;;;;5037878;28;24428;-55
2022/02/03 07:03:30;;;;;;;10.77;3.55;;;;;;;;;;5028793;28;24420;-55
2022/02/03 07:05:55;;;;;;;8.20;3.47;;;;;;;;;;5032455;28;24415;-55
2022/02/03 07:08:22;;;;;;;6.13;3.20;;;;;;;;;;5031933;28;24771;-55
2022/02/03 07:10:49;;;;;;;7.20;3.10;;;;;;;;;;5041185;28;24423;-55
2022/02/03 07:13:15;;;;;;;6.15;3.60;;;;;;;;;;5032373;28;24442;-55
2022/02/03 07:15:42;;;;;;;7.60;3.60;;;;;;;;;;5031572;28;24478;-55
2022/02/03 07:18:07;;;;;;;7.30;3.50;;;;;;;;;;5035038;28;24854;-56
2022/02/03 07:20:34;;;;;;;8.17;3.60;;;;;;;;;;5031393;28;24522;-55
2022/02/03 07:22:59;;;;;;;8.98;3.70;;;;;;;;;;5035862;28;24415;-55
2022/02/03 07:25:24;;;;;;;6.68;4.18;;;;;;;;;;5031742;28;24989;-55
2022/02/03 07:27:50;;;;;;;7.07;4.00;;;;;;;;;;5037659;28;24514;-53
2022/02/03 07:30:15;;;;;;;7.10;4.00;;;;;;;;;;5036105;28;24416;-55
2022/02/03 07:32:40;;;;;;;6.18;4.30;;;;;;;;;;5040045;28;24452;-54
2022/02/03 07:35:06;;;;;;;6.53;4.10;;;;;;;;;;5037790;28;24469;-54
2022/02/03 07:37:31;;;;;;;7.67;4.10;;;;;;;;;;5034535;28;24872;-54
2022/02/03 07:39:57;;;;;;;7.90;3.90;;;;;;;;;;5026918;28;25042;-55
2022/02/03 07:42:22;;;;;;;6.57;4.40;;;;;;;;;;5034919;28;24431;-55
2022/02/03 07:44:47;;;;;;;5.40;3.80;;;;;;;;;;5029506;28;24416;-55
2022/02/03 07:47:13;;;;;;;7.43;4.10;;;;;;;;;;5041656;28;24425;-59
2022/02/03 07:49:38;;;;;;;5.77;3.50;;;;;;;;;;5045532;28;24439;-59
2022/02/03 07:52:07;;;;;;;7.03;4.30;;;;;;;;;;5041187;28;24977;-57
2022/02/03 07:54:32;;;;;;;7.32;3.60;;;;;;;;;;5039626;28;24884;-54
2022/02/03 07:56:58;;;;;;;5.93;3.90;;;;;;;;;;5027328;28;24941;-55
2022/02/03 07:59:24;;;;;;;7.50;4.03;;;;;;;;;;5038632;28;24461;-54
2022/02/03 08:01:49;;;;;;;7.20;3.90;;;;;;;;;;5040125;28;24490;-57
2022/02/03 08:04:15;;;;;;;6.97;4.00;;;;;;;;;;5024152;28;24400;-55
2022/02/03 08:06:45;;;;;;;7.15;4.20;;;;;;;;;;5030087;28;24412;-57
2022/02/03 08:09:19;;;;;;;6.68;3.92;;;;;;;;;;5044361;28;24415;-53
2022/02/03 08:11:50;;;;;;;8.32;3.80;;;;;;;;;;5047452;28;24415;-57
2022/02/03 08:15:04;;;;;;;7.63;3.80;;;;;;;;;;5047562;28;24471;-55
2022/02/03 08:17:12;;;;;;;6.90;3.53;;;;;;;;;;5033913;28;24434;-55
2022/02/03 08:22:16;;;;;;;6.93;3.78;;;;;;;;;;5026623;28;24419;-56
2022/02/03 08:24:55;;;;;;;7.07;3.70;;;;;;;;;;5039928;28;24449;-55
2022/02/03 08:32:34;;;;;;;9.75;4.35;;;;;;;;;;5045816;28;24526;-56
2022/02/03 08:37:47;;;;;;;8.65;4.70;;;;;;;;;;5026167;28;24431;-56
2022/02/03 08:43:10;;;;;;;7.75;5.38;;;;;;;;;;5026090;28;24489;-55
2022/02/03 08:45:35;;;;;;;9.38;5.28;;;;;;;;;;5027125;28;24407;-54
2022/02/03 08:48:00;;;;;;;8.53;4.50;;;;;;;;;;5027319;28;24402;-54
2022/02/03 08:50:25;;;;;;;8.40;4.20;;;;;;;;;;5034163;28;24412;-54
2022/02/03 08:55:36;;;;;;;9.20;4.53;;;;;;;;;;5037201;28;24455;-55
2022/02/03 09:00:52;;;;;;;9.20;4.60;;;;;;;;;;5028139;28;24501;-55
2022/02/03 09:36:01;;;;;;;7.70;4.60;;;;;;;;;;5027062;28;24942;-55
2022/02/03 09:54:45;;;;;;;9.45;5.45;;;;;;;;;;5030460;28;24402;-54
2022/02/03 09:59:46;;;;;;;8.93;4.80;;;;;;;;;;5048492;28;24808;-54
2022/02/03 10:02:17;;;;;;;6.80;3.90;;;;;;;;;;5048005;28;24567;-54
2022/02/03 10:04:55;;;;;;;6.17;4.17;;;;;;;;;;5049928;28;24820;-54
2022/02/03 10:07:24;;;;;;;8.38;4.72;;;;;;;;;;5042138;28;24419;-55
2022/02/03 10:09:49;;;;;;;10.48;5.57;;;;;;;;;;5030016;28;24411;-54
2022/02/03 10:12:15;;;;;;;8.10;5.25;;;;;;;;;;5041771;28;24955;-54
2022/02/03 10:14:42;;;;;;;6.65;5.03;;;;;;;;;;5033139;28;24510;-56
2022/02/03 10:17:08;;;;;;;7.93;4.77;;;;;;;;;;5040764;28;24494;-56
2022/02/03 10:19:37;;;;;;;6.63;4.50;;;;;;;;;;5050135;28;24480;-55
2022/02/03 10:22:10;;;;;;;8.45;5.03;;;;;;;;;;5039066;28;24435;-55
2022/02/03 10:24:49;;;;;;;5.85;4.22;;;;;;;;;;5041835;28;24403;-55
2022/02/03 10:27:34;;;;;;;5.70;3.90;;;;;;;;;;5049431;28;24411;-55
2022/02/03 10:30:34;;;;;;;8.13;4.82;;;;;;;;;;5049491;28;24399;-54
2022/02/03 10:32:59;;;;;;;6.88;4.32;;;;;;;;;;5030819;28;24412;-55
2022/02/03 10:35:40;;;;;;;5.87;4.50;;;;;;;;;;5042034;28;24762;-55
2022/02/03 10:41:23;;;;;;;9.00;5.40;;;;;;;;;;5028371;28;24411;-55
2022/02/03 10:54:47;;;;;;;13.10;10.90;;;;;;;;;;5028713;28;24961;-55
2022/02/03 10:57:35;;;;;;;12.23;9.70;;;;;;;;;;5036204;28;24423;-56
2022/02/03 11:03:01;;;;;;;10.63;6.77;;;;;;;;;;5034205;28;24964;-55
2022/02/03 11:05:52;;;;;;;10.00;6.20;;;;;;;;;;5038018;28;24486;-55
2022/02/03 11:08:31;;;;;;;11.10;5.88;;;;;;;;;;5048401;28;24427;-55
2022/02/03 11:11:00;;;;;;;8.45;5.28;;;;;;;;;;5044481;28;24481;-55
2022/02/03 11:13:34;;;;;;;8.20;5.80;;;;;;;;;;5029167;28;24550;-55
2022/02/03 11:16:01;;;;;;;9.43;5.60;;;;;;;;;;5029365;28;24415;-56
2022/02/03 11:18:26;;;;;;;10.68;6.00;;;;;;;;;;5048458;28;24755;-55
2022/02/03 11:20:52;;;;;;;14.80;7.03;;;;;;;;;;5046141;28;25330;-55
2022/02/03 11:23:33;;;;;;;10.10;6.57;;;;;;;;;;5029128;28;24396;-55
2022/02/03 11:26:16;;;;;;;12.77;6.80;;;;;;;;;;5030369;28;24431;-55
2022/02/03 11:37:14;;;;;;;10.73;6.80;;;;;;;;;;5036049;28;24415;-55
2022/02/03 11:40:12;;;;;;;8.48;6.10;;;;;;;;;;5028529;28;24821;-55
2022/02/03 11:45:47;;;;;;;10.48;6.90;;;;;;;;;;5039713;28;24505;-55
2022/02/03 11:51:01;;;;;;;9.75;6.43;;;;;;;;;;5048257;28;24965;-55
2022/02/03 11:59:22;;;;;;;8.63;5.65;;;;;;;;;;5028322;28;24396;-55
2022/02/03 12:02:19;;;;;;;9.02;5.90;;;;;;;;;;5033544;28;24496;-55
2022/02/03 12:05:03;;;;;;;7.18;5.03;;;;;;;;;;5047349;28;24957;-55
2022/02/03 12:10:20;;;;;;;6.75;5.00;;;;;;;;;;5028103;28;24415;-56
2022/02/03 12:16:05;;;;;;;7.38;5.35;;;;;;;;;;5047202;28;24520;-56
2022/02/03 12:18:56;;;;;;;10.07;6.18;;;;;;;;;;5047692;28;24383;-55
2022/02/03 12:21:34;;;;;;;8.48;5.28;;;;;;;;;;5044952;28;26556;-56
2022/02/03 12:24:15;;;;;;;10.02;5.50;;;;;;;;;;5027753;28;24856;-55
2022/02/03 12:26:46;;;;;;;9.15;5.35;;;;;;;;;;5030377;28;24450;-55
2022/02/03 12:29:21;;;;;;;8.77;5.40;;;;;;;;;;5034593;28;24507;-55
2022/02/03 12:39:55;;;;;;;9.35;5.50;;;;;;;;;;5047185;28;24430;-55
2022/02/03 12:45:17;;;;;;;7.13;5.00;;;;;;;;;;5046778;28;24418;-55
2022/02/03 12:47:47;;;;;;;6.40;4.93;;;;;;;;;;5046348;28;24842;-57
2022/02/03 12:50:14;;;;;;;6.60;5.30;;;;;;;;;;5046988;28;24387;-57
2022/02/03 12:52:41;;;;;;;9.45;5.65;;;;;;;;;;5047054;28;24407;-57
2022/02/03 12:55:07;;;;;;;7.80;5.18;;;;;;;;;;5028836;28;25294;-57
2022/02/03 12:57:34;;;;;;;9.00;5.60;;;;;;;;;;5028203;28;24412;-57
2022/02/03 13:00:19;;;;;;;8.68;4.72;;;;;;;;;;5027127;28;25069;-56
2022/02/03 13:02:54;;;;;;;7.47;5.00;;;;;;;;;;5027972;28;24507;-54
2022/02/03 13:05:21;;;;;;;7.93;5.60;;;;;;;;;;5045037;28;24414;-56
2022/02/03 13:07:46;;;;;;;10.38;6.35;;;;;;;;;;5029572;28;24470;-57
2022/02/03 13:10:11;;;;;;;6.10;5.43;;;;;;;;;;5032140;28;24857;-57
2022/02/03 13:12:44;;;;;;;8.60;5.60;;;;;;;;;;5023616;28;24981;-55
2022/02/03 13:15:09;;;;;;;7.20;5.07;;;;;;;;;;5023233;28;24473;-55
2022/02/03 13:17:39;;;;;;;7.03;5.20;;;;;;;;;;5036527;28;24462;-55
2022/02/03 13:20:08;;;;;;;6.80;5.20;;;;;;;;;;5022459;28;24969;-55
2022/02/03 13:22:42;;;;;;;9.00;5.60;;;;;;;;;;5023843;28;24423;-56
2022/02/03 13:25:15;;;;;;;7.85;5.38;;;;;;;;;;5025509;28;25203;-56
2022/02/03 13:30:14;;;;;;;8.10;5.47;;;;;;;;;;5042728;28;24581;-56
2022/02/03 13:32:47;;;;;;;8.63;5.90;;;;;;;;;;5027938;28;24680;-55
2022/02/03 13:35:25;;;;;;;8.15;6.18;;;;;;;;;;5026963;28;24615;-56
2022/02/03 13:38:02;;;;;;;8.40;6.70;;;;;;;;;;5028181;28;24996;-56
2022/02/03 13:40:28;;;;;;;8.80;7.25;;;;;;;;;;5032979;28;24438;-56
2022/02/03 13:43:01;;;;;;;7.45;6.60;;;;;;;;;;5046407;28;24425;-56
2022/02/03 13:45:26;;;;;;;7.75;6.55;;;;;;;;;;5038100;28;24411;-56
2022/02/03 13:47:52;;;;;;;8.10;5.60;;;;;;;;;;5030691;28;25331;-56
2022/02/03 13:50:27;;;;;;;10.30;7.10;;;;;;;;;;5038622;28;25077;-56
2022/02/03 13:53:14;;;;;;;7.80;5.78;;;;;;;;;;5027171;28;24420;-56
2022/02/03 14:21:17;;;;;;;9.23;7.22;;;;;;;;;;5040709;28;24598;-56
2022/02/03 14:29:19;;;;;;;9.25;7.50;;;;;;;;;;5029604;28;24415;-56
2022/02/03 14:31:47;;;;;;;10.13;8.77;;;;;;;;;;5034052;28;24423;-57
2022/02/03 14:34:22;;;;;;;10.82;8.50;;;;;;;;;;5040022;28;24419;-56
2022/02/03 14:36:57;;;;;;;8.70;6.80;;;;;;;;;;5033271;28;24431;-56
2022/02/03 14:39:34;;;;;;;10.95;8.05;;;;;;;;;;5039451;28;24475;-56
2022/02/03 14:42:00;;;;;;;10.10;7.90;;;;;;;;;;5028092;28;24474;-56
2022/02/03 14:44:25;;;;;;;10.60;7.90;;;;;;;;;;5037370;28;24431;-56
2022/02/03 14:46:50;;;;;;;9.27;8.10;;;;;;;;;;5027961;28;24419;-56
2022/02/03 14:49:16;;;;;;;11.73;9.40;;;;;;;;;;5039197;28;24407;-55
2022/02/03 14:51:56;;;;;;;8.80;7.90;;;;;;;;;;5030932;28;24941;-55
2022/02/03 14:59:34;;;;;;;10.73;8.70;;;;;;;;;;5026838;28;24427;-56
2022/02/03 15:01:59;;;;;;;10.40;8.13;;;;;;;;;;5029713;28;24431;-54
2022/02/03 15:04:28;;;;;;;11.00;8.17;;;;;;;;;;5044009;28;24506;-57
2022/02/03 15:07:00;;;;;;;10.43;8.55;;;;;;;;;;5030222;28;24849;-56
2022/02/03 15:12:25;;;;;;;9.65;8.65;;;;;;;;;;5034459;28;24423;-57
2022/02/03 15:14:51;;;;;;;10.77;8.60;;;;;;;;;;5026140;28;24797;-57
2022/02/03 15:17:16;;;;;;;12.40;9.37;;;;;;;;;;5026951;28;24424;-57
2022/02/03 15:19:41;;;;;;;9.90;8.90;;;;;;;;;;5027070;28;24412;-57
2022/02/03 15:22:06;;;;;;;15.10;10.95;;;;;;;;;;5026142;28;25005;-56
2022/02/03 15:24:31;;;;;;;11.10;9.30;;;;;;;;;;5045134;28;24414;-57
2022/02/03 15:26:59;;;;;;;13.17;9.47;;;;;;;;;;5045621;28;24499;-55
2022/02/03 15:29:25;;;;;;;14.40;10.85;;;;;;;;;;5038071;28;24504;-55
2022/02/03 15:31:50;;;;;;;11.35;9.93;;;;;;;;;;5028995;28;24865;-55
2022/02/03 15:34:20;;;;;;;12.23;10.05;;;;;;;;;;5031906;28;24437;-55
2022/02/03 15:36:49;;;;;;;16.38;12.40;;;;;;;;;;5029186;28;24429;-56
2022/02/03 15:39:19;;;;;;;14.43;12.02;;;;;;;;;;5030629;28;24457;-56
2022/02/03 15:41:47;;;;;;;15.30;11.43;;;;;;;;;;5038158;28;24427;-56
2022/02/03 15:44:12;;;;;;;16.63;13.10;;;;;;;;;;5040236;28;24426;-56
2022/02/03 15:46:43;;;;;;;16.57;13.37;;;;;;;;;;5029550;28;24955;-56
2022/02/03 16:00:50;;;;;;;18.05;14.05;;;;;;;;;;5039033;28;24515;-57
2022/02/03 16:02:50;;;;;;;15.40;12.85;;;;;;;;;;5043786;28;24514;-56
2022/02/03 16:16:49;;;;;;;24.80;16.50;;;;;;;;;;5036787;28;24411;-57
2022/02/03 16:19:15;;;;;;;19.63;16.20;;;;;;;;;;5030356;28;25007;-57
2022/02/03 16:21:51;;;;;;;20.03;15.50;;;;;;;;;;5037662;28;24431;-56
2022/02/03 16:40:51;;;;;;;17.15;14.38;;;;;;;;;;5024399;28;24411;-57
2022/02/03 16:52:06;;;;;;;26.60;19.83;;;;;;;;;;5038130;28;24406;-57
2022/02/03 16:54:00;;;;;;;23.05;16.48;;;;;;;;;;5028520;28;25040;-57
2022/02/03 16:56:27;;;;;;;21.30;15.37;;;;;;;;;;5036591;28;24421;-57
2022/02/03 16:58:52;;;;;;;21.30;16.33;;;;;;;;;;5041664;28;24411;-58
2022/02/03 17:01:19;;;;;;;20.13;15.53;;;;;;;;;;5041303;28;24435;-57
2022/02/03 17:03:44;;;;;;;21.10;16.63;;;;;;;;;;5027457;28;24477;-58
2022/02/03 17:06:10;;;;;;;21.93;17.50;;;;;;;;;;5033469;28;24512;-57
2022/02/03 17:08:35;;;;;;;18.23;15.43;;;;;;;;;;5021666;28;24988;-58
2022/02/03 17:11:00;;;;;;;15.33;13.70;;;;;;;;;;5028181;28;24427;-57
2022/02/03 17:13:26;;;;;;;18.07;15.03;;;;;;;;;;5029627;28;24985;-57
2022/02/03 17:15:51;;;;;;;19.30;16.30;;;;;;;;;;5042325;28;25207;-57
2022/02/03 17:18:16;;;;;;;20.13;15.97;;;;;;;;;;5027194;28;25020;-56
2022/02/03 17:20:42;;;;;;;19.20;15.50;;;;;;;;;;5026919;28;24423;-57
2022/02/03 17:23:11;;;;;;;17.73;15.82;;;;;;;;;;5028674;28;24498;-57
2022/02/03 17:25:52;;;;;;;18.73;15.80;;;;;;;;;;5032015;28;24975;-57
2022/02/03 17:28:23;;;;;;;19.75;15.68;;;;;;;;;;5042435;28;24710;-57
2022/02/03 17:30:56;;;;;;;19.17;15.40;;;;;;;;;;5033086;28;24416;-57
2022/02/03 17:54:01;;;;;;;16.57;14.20;;;;;;;;;;5037326;28;24502;-57
2022/02/03 18:04:37;;;;;;;19.23;14.17;;;;;;;;;;5038536;28;25018;-56
2022/02/03 18:09:19;;;;;;;15.17;13.50;;;;;;;;;;5023203;28;24426;-57
2022/02/03 18:11:55;;;;;;;18.63;13.88;;;;;;;;;;5025498;28;24814;-56
2022/02/03 18:30:15;;;;;;;16.88;13.50;;;;;;;;;;5038293;28;24821;-57
2022/02/03 18:32:54;;;;;;;14.73;13.20;;;;;;;;;;5046313;28;24419;-57
2022/02/03 18:46:42;;;;;;;16.20;14.50;;;;;;;;;;5026898;28;24510;-57
2022/02/03 18:51:30;;;;;;;16.23;14.52;;;;;;;;;;5027198;28;24422;-57
2022/02/03 18:56:34;;;;;;;14.77;13.27;;;;;;;;;;5033389;28;24476;-59
2022/02/03 19:02:14;;;;;;;15.85;12.75;;;;;;;;;;5038264;28;24437;-58
2022/02/03 19:13:51;;;;;;;15.70;14.05;;;;;;;;;;5031829;28;24438;-57
2022/02/03 19:22:35;;;;;;;17.58;15.02;;;;;;;;;;5029417;28;24431;-56
2022/02/03 19:24:33;;;;;;;17.17;15.32;;;;;;;;;;5028734;28;25280;-57
2022/02/03 20:03:04;;;;;;;17.40;15.30;;;;;;;;;;5032130;28;24763;-57
2022/02/03 20:05:30;;;;;;;18.73;16.00;;;;;;;;;;5031077;28;25059;-56
2022/02/03 20:08:01;;;;;;;17.00;15.20;;;;;;;;;;5024681;28;24419;-56
2022/02/03 20:10:36;;;;;;;17.40;14.82;;;;;;;;;;5023947;28;24528;-56
2022/02/03 20:13:01;;;;;;;16.42;14.75;;;;;;;;;;5035184;28;24818;-57
2022/02/03 20:15:26;;;;;;;17.83;15.57;;;;;;;;;;5038709;28;25256;-56
2022/02/03 20:17:51;;;;;;;17.20;15.40;;;;;;;;;;5037289;28;24469;-57
2022/02/03 20:20:16;;;;;;;16.40;14.80;;;;;;;;;;5037831;28;24412;-57
2022/02/03 20:22:42;;;;;;;15.73;14.03;;;;;;;;;;5034596;28;24411;-56
2022/02/03 20:25:08;;;;;;;16.80;14.93;;;;;;;;;;5036128;28;25087;-56
2022/02/03 20:27:34;;;;;;;17.23;15.43;;;;;;;;;;5030725;28;24435;-56
2022/02/03 20:29:59;;;;;;;18.37;16.00;;;;;;;;;;5024913;28;24416;-56
2022/02/03 20:32:25;;;;;;;17.85;14.80;;;;;;;;;;5032832;28;24419;-56
2022/02/03 20:34:50;;;;;;;17.98;15.65;;;;;;;;;;5034359;28;24412;-55
2022/02/03 20:37:16;;;;;;;16.65;14.85;;;;;;;;;;5029652;28;24469;-56
2022/02/03 20:39:43;;;;;;;16.27;14.57;;;;;;;;;;5022456;28;24541;-56
2022/02/03 20:42:08;;;;;;;16.27;14.57;;;;;;;;;;5030346;28;24443;-56
2022/02/03 20:44:33;;;;;;;16.07;14.37;;;;;;;;;;5031970;28;25276;-56
2022/02/03 20:46:58;;;;;;;16.23;14.53;;;;;;;;;;5037006;28;25120;-56
2022/02/03 20:49:24;;;;;;;20.07;16.50;;;;;;;;;;5036055;28;24476;-56
2022/02/03 20:51:49;;;;;;;17.47;15.60;;;;;;;;;;5052367;28;24419;-56
2022/02/03 20:54:14;;;;;;;16.53;14.73;;;;;;;;;;5030389;28;24473;-57
2022/02/03 20:56:39;;;;;;;18.07;16.17;;;;;;;;;;5026779;28;24411;-56
2022/02/03 20:59:07;;;;;;;16.47;14.77;;;;;;;;;;5037477;28;24441;-57
2022/02/03 21:01:35;;;;;;;15.52;13.93;;;;;;;;;;5029266;28;24474;-56
2022/02/03 21:04:07;;;;;;;17.83;15.93;;;;;;;;;;5025277;28;24563;-56
2022/02/03 21:06:32;;;;;;;18.63;15.40;;;;;;;;;;5030043;28;24414;-57
2022/02/03 21:08:58;;;;;;;15.47;13.87;;;;;;;;;;5025288;28;24416;-56
2022/02/03 21:11:23;;;;;;;15.93;14.30;;;;;;;;;;5028253;28;24494;-55
2022/02/03 21:13:49;;;;;;;14.47;12.97;;;;;;;;;;5034659;28;24423;-57
2022/02/03 21:16:14;;;;;;;13.93;12.43;;;;;;;;;;5035352;28;24423;-57
2022/02/03 21:18:42;;;;;;;13.80;12.40;;;;;;;;;;5033893;28;25490;-56
2022/02/03 21:21:07;;;;;;;13.82;12.43;;;;;;;;;;5027593;28;24458;-57
2022/02/03 21:23:33;;;;;;;14.33;12.90;;;;;;;;;;5038095;28;24486;-57
2022/02/03 21:26:01;;;;;;;13.93;12.43;;;;;;;;;;5039126;28;24946;-56
2022/02/03 21:28:29;;;;;;;14.43;12.93;;;;;;;;;;5030405;28;24422;-56
2022/02/03 21:30:55;;;;;;;15.02;13.43;;;;;;;;;;5033329;28;24447;-56
2022/02/03 21:33:25;;;;;;;13.40;12.00;;;;;;;;;;5038484;28;24454;-56
2022/02/03 21:35:51;;;;;;;13.93;12.52;;;;;;;;;;5038584;28;24514;-55
2022/02/03 21:38:17;;;;;;;13.48;12.07;;;;;;;;;;5035051;28;24448;-56
2022/02/03 21:40:42;;;;;;;13.80;12.40;;;;;;;;;;5033684;28;24431;-56
2022/02/03 21:43:07;;;;;;;13.97;12.57;;;;;;;;;;5029601;28;24418;-56
2022/02/03 21:45:32;;;;;;;15.40;13.80;;;;;;;;;;5036502;28;24431;-56
2022/02/03 21:47:58;;;;;;;14.03;12.63;;;;;;;;;;5033116;28;24504;-57
2022/02/03 21:50:29;;;;;;;14.25;12.77;;;;;;;;;;5034734;28;25203;-56
2022/02/03 21:52:55;;;;;;;14.98;13.48;;;;;;;;;;5046103;28;24530;-56
2022/02/03 21:55:20;;;;;;;14.18;12.68;;;;;;;;;;5046456;28;25005;-56
2022/02/03 21:57:49;;;;;;;13.43;12.13;;;;;;;;;;5040546;28;24415;-57
2022/02/03 22:00:15;;;;;;;13.80;12.40;;;;;;;;;;5035646;28;24474;-57
2022/02/03 22:02:41;;;;;;;14.88;13.27;;;;;;;;;;5034369;28;24416;-57
2022/02/03 22:05:11;;;;;;;14.48;12.98;;;;;;;;;;5036361;28;24410;-57
2022/02/03 22:07:37;;;;;;;14.07;12.60;;;;;;;;;;5048165;28;24969;-56
2022/02/03 22:10:05;;;;;;;13.85;12.45;;;;;;;;;;5033458;28;24423;-58
2022/02/03 22:12:30;;;;;;;14.45;12.95;;;;;;;;;;5030716;28;24411;-57
2022/02/03 22:14:55;;;;;;;15.13;13.30;;;;;;;;;;5037988;28;24510;-57
2022/02/03 22:17:20;;;;;;;13.73;12.32;;;;;;;;;;5039941;28;24407;-57
2022/02/03 22:19:51;;;;;;;15.60;13.87;;;;;;;;;;5037862;28;24858;-56
2022/02/03 22:22:38;;;;;;;15.68;13.27;;;;;;;;;;5034721;28;24424;-56
2022/02/03 22:44:08;;;;;;;16.73;14.93;;;;;;;;;;5033759;28;24999;-56
2022/02/03 22:49:09;;;;;;;15.30;13.18;;;;;;;;;;5036911;28;24419;-56
2022/02/03 22:51:35;;;;;;;14.25;12.75;;;;;;;;;;5043209;28;24786;-56
2022/02/03 22:54:01;;;;;;;16.27;13.47;;;;;;;;;;5033095;28;24451;-56
2022/02/03 22:56:26;;;;;;;14.17;12.50;;;;;;;;;;5035489;28;24434;-56
2022/02/03 23:01:19;;;;;;;13.65;12.18;;;;;;;;;;5044302;28;24423;-56
2022/02/03 23:03:45;;;;;;;13.43;12.02;;;;;;;;;;5043508;28;25026;-56
2022/02/03 23:06:11;;;;;;;14.93;13.03;;;;;;;;;;5042978;28;24969;-56
2022/02/03 23:08:53;;;;;;;14.83;12.20;;;;;;;;;;5045795;28;24484;-56
2022/02/03 23:14:11;;;;;;;13.00;11.70;;;;;;;;;;5032491;28;25011;-57
2022/02/03 23:17:03;;;;;;;12.90;11.20;;;;;;;;;;5043161;28;24782;-56
2022/02/03 23:22:15;;;;;;;11.70;10.43;;;;;;;;;;5035020;28;24435;-57
2022/02/03 23:24:45;;;;;;;12.25;10.95;;;;;;;;;;5033008;28;24420;-56
2022/02/03 23:29:51;;;;;;;12.48;11.27;;;;;;;;;;5039195;28;24820;-56
2022/02/03 23:32:17;;;;;;;11.90;10.70;;;;;;;;;;5036347;28;24549;-56
2022/02/03 23:34:46;;;;;;;10.50;9.50;;;;;;;;;;5034241;28;24617;-56
2022/02/03 23:37:11;;;;;;;11.20;10.10;;;;;;;;;;5040893;28;24482;-57
2022/02/03 23:45:07;;;;;;;12.88;11.00;;;;;;;;;;5040502;28;24840;-57
